Terminal Aerodrome Forecast
Issued by NWS Jackson, MS

Home | Current Version | Previous Version | Text Only | Print | Product List | Glossary On
Versions: 1 2 3 4 5 6 7 8 9 10 11 12 13 14
000
FTUS44 KJAN 290500
TAFJAN
TAF
KJAN 290520Z 2906/3006 17006KT P6SM SKC
     FM291000 18006KT P6SM BKN015
     FM291600 19012G22KT P6SM BKN025
     FM300000 19008KT P6SM BKN035
     FM300200 18006KT P6SM BKN020=

USA.gov is the U.S. government's official web portal to all federal, state and local government web resources and services.